Time;durP1;ratioP1;P1;durP2;ratioP2;P2;SDS_P1;SDS_P2;PMS_P1;PMS_P2;Temp;Humidity;BMP_temperature;BMP_pressure;BME280_temperature;BME280_humidity;BME280_pressure;Samples;Min_cycle;Max_cycle;Signal;HPM_P1;HPM_P2
2022/09/15 00:00:42;;;;;;;4.85;2.15;;;16.40;99.90;;;;;;5096172;28;20040;-73
2022/09/15 00:03:08;;;;;;;3.33;1.65;;;16.50;99.90;;;;;;5096544;28;20036;-73
2022/09/15 00:05:33;;;;;;;3.65;1.60;;;16.60;99.90;;;;;;5096430;28;20114;-73
2022/09/15 00:07:59;;;;;;;3.53;1.50;;;16.70;99.90;;;;;;5128870;28;20119;-73
2022/09/15 00:10:27;;;;;;;9.82;3.25;;;16.60;99.90;;;;;;5129291;28;20360;-73
2022/09/15 00:12:54;;;;;;;7.32;2.92;;;16.70;99.90;;;;;;5129314;28;20325;-73
2022/09/15 00:15:19;;;;;;;8.55;2.88;;;16.60;99.90;;;;;;5096148;28;20036;-74
2022/09/15 00:17:48;;;;;;;8.88;3.30;;;16.50;99.90;;;;;;5096265;28;20093;-73
2022/09/15 00:20:15;;;;;;;11.68;4.03;;;16.40;99.90;;;;;;5096158;28;20426;-73
2022/09/15 00:22:41;;;;;;;11.10;3.65;;;16.20;99.90;;;;;;5096333;28;20115;-73
2022/09/15 00:25:07;;;;;;;7.60;3.80;;;16.00;99.90;;;;;;5096375;28;20150;-73
2022/09/15 00:27:33;;;;;;;10.82;3.33;;;16.00;99.90;;;;;;5095799;28;20040;-73
2022/09/15 00:29:59;;;;;;;12.55;3.65;;;16.00;99.90;;;;;;5096467;28;20096;-73
2022/09/15 00:32:25;;;;;;;6.93;2.95;;;16.10;99.90;;;;;;5115880;28;20036;-73
2022/09/15 00:34:50;;;;;;;9.27;3.13;;;16.20;99.90;;;;;;5115797;28;20437;-73
2022/09/15 00:37:16;;;;;;;11.63;3.35;;;16.40;99.90;;;;;;5099520;28;20040;-73
2022/09/15 00:39:42;;;;;;;8.43;2.50;;;16.50;99.90;;;;;;5099711;28;20423;-73
2022/09/15 00:42:17;;;;;;;12.77;3.33;;;16.50;99.90;;;;;;5132571;27;20052;-73
2022/09/15 00:44:58;;;;;;;6.63;1.92;;;16.60;99.90;;;;;;5098494;28;20102;-73
2022/09/15 00:47:28;;;;;;;6.20;1.92;;;16.70;99.90;;;;;;5099300;28;20440;-73
2022/09/15 00:50:03;;;;;;;6.90;2.28;;;16.70;99.90;;;;;;5098473;28;20043;-73
2022/09/15 00:52:58;;;;;;;3.60;1.70;;;16.80;99.90;;;;;;5099511;28;20482;-74
2022/09/15 00:55:35;;;;;;;7.30;1.77;;;16.80;99.90;;;;;;5099493;28;20139;-73
2022/09/15 00:58:05;;;;;;;7.82;1.95;;;16.90;99.90;;;;;;5099347;28;20044;-73
2022/09/15 01:00:32;;;;;;;3.22;1.77;;;16.90;99.90;;;;;;5098366;28;20051;-73
2022/09/15 01:02:58;;;;;;;5.47;1.83;;;16.80;99.90;;;;;;5132019;27;20044;-74
2022/09/15 01:05:38;;;;;;;6.38;2.00;;;16.90;99.90;;;;;;5099139;28;20039;-74
2022/09/15 01:08:09;;;;;;;9.48;2.13;;;16.90;99.90;;;;;;5097562;28;20040;-73
2022/09/15 01:10:37;;;;;;;5.65;1.60;;;17.00;99.90;;;;;;5097690;27;20447;-74
2022/09/15 01:13:07;;;;;;;7.38;1.55;;;16.90;99.90;;;;;;5113755;28;20720;-74
2022/09/15 01:16:01;;;;;;;7.03;1.70;;;16.90;99.90;;;;;;5100607;28;20043;-75
2022/09/15 01:18:57;;;;;;;6.30;1.02;;;16.90;99.90;;;;;;5118323;28;20077;-73
2022/09/15 01:21:46;;;;;;;8.23;1.33;;;17.00;99.90;;;;;;5112007;28;20127;-73
2022/09/15 01:24:29;;;;;;;8.68;1.45;;;17.10;99.90;;;;;;5118031;28;20534;-73
2022/09/15 01:27:25;;;;;;;7.47;1.15;;;17.10;99.90;;;;;;5152675;27;20114;-73
2022/09/15 01:30:09;;;;;;;5.43;1.27;;;17.10;99.90;;;;;;5119064;28;20092;-73
2022/09/15 01:33:13;;;;;;;7.22;1.35;;;17.00;99.90;;;;;;5119199;28;20495;-73
2022/09/15 01:36:02;;;;;;;6.13;1.00;;;17.00;99.90;;;;;;5073505;28;20043;-73
2022/09/15 01:38:49;;;;;;;5.40;1.17;;;17.00;99.90;;;;;;5118760;28;20473;-74
2022/09/15 01:41:18;;;;;;;8.15;1.20;;;16.90;99.90;;;;;;5118126;28;20047;-73
2022/09/15 01:44:12;;;;;;;4.18;1.00;;;16.90;99.90;;;;;;5118628;28;20054;-73
2022/09/15 01:46:46;;;;;;;4.97;0.82;;;16.90;99.90;;;;;;5118671;28;20036;-73
2022/09/15 01:49:19;;;;;;;3.20;0.88;;;16.90;99.90;;;;;;5118513;28;20137;-74
2022/09/15 01:51:49;;;;;;;5.28;1.02;;;16.80;99.90;;;;;;5118016;28;20067;-73
2022/09/15 01:54:19;;;;;;;4.65;0.85;;;16.80;99.90;;;;;;5117786;28;20384;-73
2022/09/15 01:56:45;;;;;;;5.00;0.80;;;16.80;99.90;;;;;;5117734;28;20172;-73
2022/09/15 01:59:11;;;;;;;5.38;0.95;;;16.80;99.90;;;;;;5118439;28;20050;-73
2022/09/15 02:01:50;;;;;;;5.18;0.90;;;16.70;99.90;;;;;;5118600;28;20329;-73
2022/09/15 02:04:17;;;;;;;7.35;1.38;;;16.70;99.90;;;;;;5118343;28;20058;-73
2022/09/15 02:07:15;;;;;;;6.57;1.23;;;16.70;99.90;;;;;;5116906;28;20069;-73
2022/09/15 02:10:13;;;;;;;7.90;1.25;;;16.90;99.90;;;;;;5086491;28;20437;-74
2022/09/15 02:13:07;;;;;;;4.75;0.90;;;16.80;99.90;;;;;;5114935;28;20092;-74
2022/09/15 02:15:46;;;;;;;7.00;0.98;;;16.70;99.90;;;;;;5151708;27;20429;-74
2022/09/15 02:18:18;;;;;;;5.43;0.70;;;16.50;99.90;;;;;;5118099;27;20040;-74
2022/09/15 02:20:50;;;;;;;6.95;1.92;;;16.40;99.90;;;;;;5117992;28;20039;-73
2022/09/15 02:23:25;;;;;;;8.95;1.45;;;16.20;99.90;;;;;;5118168;28;20054;-74
2022/09/15 02:25:58;;;;;;;11.57;1.33;;;16.20;99.90;;;;;;5116899;28;20035;-73
2022/09/15 02:28:30;;;;;;;7.35;1.08;;;16.20;99.90;;;;;;5117903;28;20333;-73
2022/09/15 02:30:58;;;;;;;6.95;1.05;;;16.20;99.90;;;;;;5116966;28;20325;-73
2022/09/15 02:33:30;;;;;;;10.38;0.90;;;16.20;99.90;;;;;;5117970;27;20039;-74
2022/09/15 02:35:56;;;;;;;6.82;1.00;;;16.10;99.90;;;;;;5117671;28;20043;-74
2022/09/15 02:38:22;;;;;;;10.35;0.73;;;16.00;99.90;;;;;;5117744;28;20043;-74
2022/09/15 02:40:48;;;;;;;5.60;0.80;;;15.90;99.90;;;;;;5116651;28;20132;-73
2022/09/15 02:43:16;;;;;;;12.65;1.40;;;15.80;99.90;;;;;;5117563;28;20081;-73
2022/09/15 02:45:42;;;;;;;9.05;0.90;;;15.80;99.90;;;;;;5099499;28;20042;-74
2022/09/15 02:48:10;;;;;;;6.05;0.77;;;15.70;99.90;;;;;;5150863;27;20040;-73
2022/09/15 02:50:37;;;;;;;6.75;1.10;;;15.60;99.90;;;;;;5116615;28;20118;-73
2022/09/15 02:53:03;;;;;;;7.05;0.70;;;15.70;99.90;;;;;;5117267;28;20042;-73
2022/09/15 02:55:30;;;;;;;7.10;0.85;;;15.70;99.90;;;;;;5150757;27;20031;-73
2022/09/15 02:57:56;;;;;;;5.15;0.68;;;15.80;99.90;;;;;;5116330;28;20382;-73
2022/09/15 03:00:22;;;;;;;7.15;0.65;;;15.90;99.90;;;;;;5117613;28;20035;-73
2022/09/15 03:02:53;;;;;;;7.55;0.95;;;16.10;99.90;;;;;;5116491;28;20027;-73
2022/09/15 03:05:25;;;;;;;10.73;1.30;;;16.20;99.90;;;;;;5099280;28;20104;-73
2022/09/15 03:07:51;;;;;;;5.47;0.77;;;16.20;99.90;;;;;;5115757;28;20082;-73
2022/09/15 03:10:17;;;;;;;6.32;0.65;;;16.10;99.90;;;;;;5117169;28;20108;-73
2022/09/15 03:12:49;;;;;;;3.85;0.50;;;16.20;99.90;;;;;;5116504;28;20046;-73
2022/09/15 03:15:17;;;;;;;4.13;0.73;;;16.30;99.90;;;;;;5117413;28;20042;-73
2022/09/15 03:17:45;;;;;;;5.22;0.75;;;16.30;99.90;;;;;;5116034;28;20099;-74
2022/09/15 03:20:13;;;;;;;1.75;0.52;;;16.30;99.90;;;;;;5116023;28;20432;-73
2022/09/15 03:22:39;;;;;;;5.78;0.70;;;16.30;99.90;;;;;;5117340;28;20110;-74
2022/09/15 03:25:06;;;;;;;4.32;0.80;;;16.40;99.90;;;;;;5117288;28;20476;-73
2022/09/15 03:27:33;;;;;;;7.75;0.75;;;16.50;99.90;;;;;;5116134;28;20337;-73
2022/09/15 03:29:58;;;;;;;6.70;1.05;;;16.50;99.90;;;;;;5117154;28;20044;-73
2022/09/15 03:32:24;;;;;;;4.47;0.95;;;16.50;99.90;;;;;;5099027;28;20047;-73
2022/09/15 03:34:50;;;;;;;4.47;0.60;;;16.50;99.90;;;;;;5132865;28;20352;-73
2022/09/15 03:37:16;;;;;;;11.48;1.02;;;16.60;99.90;;;;;;5116438;28;20051;-74
2022/09/15 03:39:42;;;;;;;9.88;1.30;;;16.60;99.90;;;;;;5116804;28;20047;-73
2022/09/15 03:42:07;;;;;;;6.88;0.80;;;16.60;99.90;;;;;;5116614;28;20063;-73
2022/09/15 03:44:34;;;;;;;9.45;0.70;;;16.50;99.90;;;;;;5116681;28;20048;-73
2022/09/15 03:47:00;;;;;;;11.25;1.10;;;16.50;99.90;;;;;;5116893;28;20447;-73
2022/09/15 03:49:26;;;;;;;4.57;0.47;;;16.50;99.90;;;;;;5116869;28;20402;-73
2022/09/15 03:51:52;;;;;;;10.25;1.27;;;16.60;99.90;;;;;;5115817;28;20039;-73
2022/09/15 03:54:18;;;;;;;7.15;0.90;;;16.50;99.90;;;;;;5117222;28;20093;-73
2022/09/15 03:56:47;;;;;;;5.70;1.08;;;16.40;99.90;;;;;;5115887;28;20051;-73
2022/09/15 03:59:17;;;;;;;6.10;0.73;;;16.40;99.90;;;;;;5116874;28;20043;-73
2022/09/15 04:01:44;;;;;;;8.30;0.90;;;16.50;99.90;;;;;;5116687;28;20119;-73
2022/09/15 04:04:10;;;;;;;6.03;0.80;;;16.30;99.90;;;;;;5115731;28;20055;-73
2022/09/15 04:06:36;;;;;;;6.72;0.70;;;16.30;99.90;;;;;;5101147;28;20448;-73
2022/09/15 04:09:02;;;;;;;4.32;0.52;;;16.40;99.90;;;;;;5119953;28;20031;-73
2022/09/15 04:11:29;;;;;;;6.07;0.80;;;16.40;99.90;;;;;;5119800;28;20294;-73
2022/09/15 04:13:55;;;;;;;8.48;0.88;;;16.40;99.90;;;;;;5102556;28;20040;-74
2022/09/15 04:16:23;;;;;;;8.48;0.98;;;16.40;99.90;;;;;;5154002;27;20088;-73
2022/09/15 04:18:50;;;;;;;6.55;0.68;;;16.40;99.90;;;;;;5120492;27;20039;-73
2022/09/15 04:21:18;;;;;;;5.90;0.80;;;16.30;99.90;;;;;;5119526;28;20339;-73
2022/09/15 04:23:44;;;;;;;6.97;0.73;;;16.20;99.90;;;;;;5120616;28;20328;-73
2022/09/15 04:26:17;;;;;;;5.85;0.70;;;16.20;99.90;;;;;;5119347;28;20051;-73
2022/09/15 04:28:43;;;;;;;6.35;0.90;;;16.30;99.90;;;;;;5120340;28;20031;-73
2022/09/15 04:31:12;;;;;;;4.70;0.63;;;16.30;99.90;;;;;;5120478;28;20485;-74
2022/09/15 04:33:39;;;;;;;7.45;0.70;;;16.30;99.90;;;;;;5118975;28;20084;-74
2022/09/15 04:36:19;;;;;;;4.80;0.50;;;16.20;99.90;;;;;;5118662;28;20409;-73
2022/09/15 04:38:46;;;;;;;5.20;0.70;;;16.20;99.90;;;;;;5119144;28;20039;-73
2022/09/15 04:41:13;;;;;;;7.80;0.88;;;16.20;99.90;;;;;;5118703;28;20052;-74
2022/09/15 04:43:40;;;;;;;6.80;1.00;;;16.20;99.90;;;;;;5119146;28;20433;-74
2022/09/15 04:46:06;;;;;;;3.00;0.70;;;16.10;99.90;;;;;;5118739;28;20493;-74
2022/09/15 04:48:32;;;;;;;5.63;0.80;;;16.20;99.90;;;;;;5118833;28;20119;-73
2022/09/15 04:51:02;;;;;;;8.60;1.15;;;16.10;99.90;;;;;;5119808;27;20042;-73
2022/09/15 04:53:28;;;;;;;7.07;0.88;;;16.10;99.90;;;;;;5118861;28;20047;-73
2022/09/15 04:56:08;;;;;;;5.90;0.70;;;16.10;99.90;;;;;;5153142;27;20040;-73
2022/09/15 04:58:39;;;;;;;4.68;0.70;;;16.20;99.90;;;;;;5118966;28;20394;-73
2022/09/15 05:01:10;;;;;;;5.25;0.90;;;16.10;99.90;;;;;;5118695;28;20039;-73
2022/09/15 05:03:37;;;;;;;7.18;1.10;;;16.20;99.90;;;;;;5119656;28;20077;-73
2022/09/15 05:06:04;;;;;;;4.32;0.75;;;16.20;99.90;;;;;;5118130;28;20050;-73
2022/09/15 05:08:30;;;;;;;6.22;0.90;;;16.20;99.90;;;;;;5118342;28;20176;-73
2022/09/15 05:11:04;;;;;;;5.60;0.73;;;16.20;99.90;;;;;;5119732;27;20110;-73
2022/09/15 05:13:30;;;;;;;6.05;0.68;;;16.10;99.90;;;;;;5119393;28;20336;-73
2022/09/15 05:16:01;;;;;;;6.38;0.82;;;16.10;99.90;;;;;;5119006;28;20168;-73
2022/09/15 05:18:27;;;;;;;6.65;1.00;;;16.10;99.90;;;;;;5119504;28;20036;-73
2022/09/15 05:20:57;;;;;;;8.73;1.00;;;16.00;99.90;;;;;;5135509;27;20456;-73
2022/09/15 05:23:23;;;;;;;6.15;0.68;;;15.90;99.90;;;;;;5118218;28;20035;-73
2022/09/15 05:26:00;;;;;;;7.85;1.00;;;15.80;99.90;;;;;;5118063;28;20071;-74
2022/09/15 05:28:26;;;;;;;5.35;0.82;;;15.80;99.90;;;;;;5118088;28;20048;-74
2022/09/15 05:30:53;;;;;;;6.63;0.88;;;15.70;99.90;;;;;;5118953;27;20042;-73
2022/09/15 05:33:21;;;;;;;6.60;0.85;;;15.70;99.90;;;;;;5118228;28;20088;-73
2022/09/15 05:36:06;;;;;;;6.55;0.70;;;15.60;99.90;;;;;;5118265;28;20329;-74
2022/09/15 05:38:32;;;;;;;6.38;0.70;;;15.60;99.90;;;;;;5101108;28;20126;-73
2022/09/15 05:41:02;;;;;;;8.20;1.10;;;15.60;99.90;;;;;;5119007;28;20118;-73
2022/09/15 05:43:31;;;;;;;5.90;0.75;;;15.60;99.90;;;;;;5118710;28;20078;-73
2022/09/15 05:45:56;;;;;;;8.13;0.98;;;15.60;99.90;;;;;;5117686;28;20321;-74
2022/09/15 05:48:23;;;;;;;5.68;0.70;;;15.70;99.90;;;;;;5117705;28;20040;-73
2022/09/15 05:50:53;;;;;;;6.03;0.80;;;15.70;99.90;;;;;;5118507;28;20114;-73
2022/09/15 05:53:19;;;;;;;6.00;0.90;;;15.70;99.90;;;;;;5118529;28;20382;-73
2022/09/15 05:55:45;;;;;;;8.13;1.48;;;15.80;99.90;;;;;;5117524;28;20043;-73
2022/09/15 05:58:12;;;;;;;6.80;0.80;;;15.80;99.90;;;;;;5117747;28;20047;-73
2022/09/15 06:00:39;;;;;;;8.63;1.02;;;15.80;99.90;;;;;;5117586;28;20126;-73
2022/09/15 06:03:04;;;;;;;9.85;0.98;;;15.90;99.90;;;;;;5118569;28;20047;-73
2022/09/15 06:05:30;;;;;;;4.07;0.60;;;16.00;99.90;;;;;;5134322;27;20424;-74
2022/09/15 06:07:56;;;;;;;11.90;0.88;;;15.80;99.90;;;;;;5117705;28;20043;-73
2022/09/15 06:10:23;;;;;;;5.57;0.80;;;15.70;99.90;;;;;;5151558;27;20036;-73
2022/09/15 06:12:52;;;;;;;10.10;1.08;;;15.70;99.90;;;;;;5118333;28;20067;-73
2022/09/15 06:15:18;;;;;;;9.90;0.80;;;15.70;99.90;;;;;;5118234;28;20120;-73
2022/09/15 06:17:45;;;;;;;7.57;1.05;;;15.60;99.90;;;;;;5117130;28;20046;-73
2022/09/15 06:20:11;;;;;;;7.97;0.98;;;15.50;99.90;;;;;;5118292;28;20031;-73
2022/09/15 06:22:37;;;;;;;7.88;0.85;;;15.50;99.90;;;;;;5100244;28;20067;-73
2022/09/15 06:25:03;;;;;;;11.95;1.33;;;15.60;99.90;;;;;;5118023;28;20031;-73
2022/09/15 06:27:29;;;;;;;9.27;0.98;;;15.50;99.90;;;;;;5117611;28;20051;-73
2022/09/15 06:29:54;;;;;;;8.88;0.80;;;15.50;99.90;;;;;;5151187;27;20035;-73
2022/09/15 06:32:20;;;;;;;9.63;1.80;;;15.80;99.90;;;;;;5117900;28;20035;-73
2022/09/15 06:34:46;;;;;;;11.23;1.23;;;16.00;99.90;;;;;;5100098;28;20051;-73
2022/09/15 06:37:12;;;;;;;12.05;1.20;;;16.20;99.90;;;;;;5117569;28;20423;-73
2022/09/15 06:39:38;;;;;;;6.22;0.60;;;16.50;99.90;;;;;;5116741;28;20048;-74
2022/09/15 06:42:04;;;;;;;8.27;0.98;;;16.60;99.90;;;;;;5099548;28;20054;-79
2022/09/15 06:44:30;;;;;;;7.45;0.82;;;16.60;99.90;;;;;;5151114;27;20043;-70
2022/09/15 06:46:56;;;;;;;11.85;1.10;;;16.60;99.90;;;;;;5116426;28;20087;-72
2022/09/15 06:49:22;;;;;;;7.80;0.90;;;16.70;99.90;;;;;;5117474;28;20036;-71
2022/09/15 06:51:47;;;;;;;8.23;1.27;;;16.50;99.90;;;;;;5117636;28;20042;-71
2022/09/15 06:54:16;;;;;;;7.50;0.85;;;16.50;99.90;;;;;;5150900;27;20434;-71
2022/09/15 06:56:42;;;;;;;7.50;0.70;;;16.60;99.90;;;;;;5117480;28;20035;-71
2022/09/15 06:59:11;;;;;;;8.07;0.73;;;16.50;99.90;;;;;;5117519;28;20466;-72
2022/09/15 07:01:37;;;;;;;7.18;0.90;;;16.60;99.90;;;;;;5116466;28;20054;-71
2022/09/15 07:04:04;;;;;;;6.25;0.80;;;16.60;99.90;;;;;;5117562;28;20338;-71
2022/09/15 07:06:32;;;;;;;5.90;0.85;;;16.50;99.90;;;;;;5116991;28;20126;-71
2022/09/15 07:08:59;;;;;;;5.45;0.80;;;16.50;99.90;;;;;;5117336;28;20067;-86
2022/09/15 07:11:25;;;;;;;3.38;0.35;;;16.40;99.90;;;;;;5099148;28;20070;-86
2022/09/15 07:13:51;;;;;;;6.53;0.90;;;16.40;99.90;;;;;;5082352;28;20447;-71
2022/09/15 07:16:18;;;;;;;3.60;0.65;;;16.40;99.90;;;;;;5117266;28;20039;-72
2022/09/15 07:18:44;;;;;;;8.43;0.98;;;16.50;99.90;;;;;;5117161;28;20085;-72
2022/09/15 07:21:16;;;;;;;6.13;0.63;;;16.70;99.90;;;;;;5116260;28;20302;-72
2022/09/15 07:23:42;;;;;;;7.97;0.85;;;17.00;99.90;;;;;;5116035;28;20044;-73
2022/09/15 07:26:17;;;;;;;5.85;0.88;;;17.00;99.90;;;;;;5117029;28;20040;-73
2022/09/15 07:28:45;;;;;;;6.82;0.85;;;17.00;99.90;;;;;;5115927;28;20035;-74
2022/09/15 07:31:14;;;;;;;5.85;0.90;;;17.30;99.90;;;;;;5117069;28;20065;-83
2022/09/15 07:33:40;;;;;;;4.63;0.88;;;17.20;99.90;;;;;;5116164;28;20305;-71
2022/09/15 07:36:07;;;;;;;5.65;0.60;;;17.20;99.90;;;;;;5117666;28;20130;-73
2022/09/15 07:38:34;;;;;;;7.25;0.70;;;17.20;99.90;;;;;;5101027;28;20055;-72
2022/09/15 07:41:12;;;;;;;6.47;0.60;;;17.30;99.90;;;;;;5119988;28;20063;-74
2022/09/15 07:43:38;;;;;;;10.13;1.15;;;17.20;99.90;;;;;;5120853;28;20124;-72
2022/09/15 07:46:05;;;;;;;6.60;0.90;;;17.10;99.90;;;;;;5121422;28;20043;-72
2022/09/15 07:48:30;;;;;;;4.03;0.60;;;17.00;99.90;;;;;;5121143;28;20044;-72
2022/09/15 07:50:58;;;;;;;12.30;0.95;;;16.80;99.90;;;;;;5154766;27;20039;-72
2022/09/15 07:53:27;;;;;;;8.57;0.77;;;16.90;99.90;;;;;;5120849;28;20484;-73
2022/09/15 07:55:54;;;;;;;6.93;0.75;;;16.80;99.90;;;;;;5121095;28;20504;-72
2022/09/15 07:58:21;;;;;;;8.48;0.70;;;16.70;99.90;;;;;;5120643;28;20043;-72
2022/09/15 08:00:47;;;;;;;7.72;0.75;;;16.60;99.90;;;;;;5119622;28;20051;-72
2022/09/15 08:03:14;;;;;;;5.78;0.95;;;16.70;99.90;;;;;;5121033;28;20130;-72
2022/09/15 08:05:39;;;;;;;4.47;0.77;;;16.50;99.90;;;;;;5120844;28;20044;-72
2022/09/15 08:08:05;;;;;;;6.28;0.73;;;16.60;99.90;;;;;;5119370;28;20104;-72
2022/09/15 08:10:32;;;;;;;4.88;1.27;;;16.60;99.90;;;;;;5120471;28;20032;-72
2022/09/15 08:12:58;;;;;;;7.43;1.30;;;16.60;99.90;;;;;;5120612;28;20035;-72
2022/09/15 08:15:24;;;;;;;6.88;0.90;;;16.60;99.90;;;;;;5120590;28;20036;-73
2022/09/15 08:17:51;;;;;;;6.03;0.75;;;16.70;99.90;;;;;;5120777;28;20075;-72
2022/09/15 08:20:17;;;;;;;8.07;0.90;;;16.60;99.90;;;;;;5120595;28;20054;-72
2022/09/15 08:22:44;;;;;;;7.63;0.90;;;16.70;99.90;;;;;;5120465;28;20048;-73
2022/09/15 08:25:11;;;;;;;13.52;1.50;;;16.70;99.90;;;;;;5120065;28;20455;-73
2022/09/15 08:27:36;;;;;;;12.00;1.00;;;16.70;99.90;;;;;;5120166;28;20071;-72
2022/09/15 08:30:03;;;;;;;5.22;0.73;;;16.70;99.90;;;;;;5120534;28;20071;-73
2022/09/15 08:32:29;;;;;;;7.35;1.23;;;16.90;99.90;;;;;;5120560;28;20040;-73
2022/09/15 08:34:54;;;;;;;25.42;2.03;;;17.00;99.90;;;;;;5120155;28;20054;-73
2022/09/15 08:37:20;;;;;;;7.07;1.00;;;16.90;99.90;;;;;;5119057;28;20078;-73
2022/09/15 08:39:46;;;;;;;6.82;0.77;;;17.00;99.90;;;;;;5120083;28;20421;-74
2022/09/15 08:42:16;;;;;;;5.43;0.95;;;17.10;99.90;;;;;;5119853;28;20051;-73
2022/09/15 08:45:08;;;;;;;5.75;0.70;;;17.10;99.90;;;;;;5120095;28;20417;-71
2022/09/15 08:47:41;;;;;;;8.43;0.60;;;16.90;99.90;;;;;;5119976;28;20398;-72
2022/09/15 08:50:14;;;;;;;9.15;1.30;;;16.80;99.90;;;;;;5119782;28;20440;-73
2022/09/15 08:53:05;;;;;;;9.32;0.90;;;17.00;99.90;;;;;;5118151;28;20413;-71
2022/09/15 08:55:47;;;;;;;7.32;0.95;;;17.20;99.90;;;;;;5091739;28;20040;-73
2022/09/15 08:58:30;;;;;;;12.02;1.25;;;17.20;99.90;;;;;;5120034;28;20043;-73
2022/09/15 09:01:02;;;;;;;7.60;0.82;;;17.30;99.90;;;;;;5119951;27;20472;-73
2022/09/15 09:03:51;;;;;;;7.40;1.08;;;17.20;99.90;;;;;;5119744;27;20124;-72
2022/09/15 09:06:26;;;;;;;10.50;1.33;;;17.20;99.90;;;;;;5119333;28;20436;-73
2022/09/15 09:09:10;;;;;;;9.73;1.13;;;17.20;99.90;;;;;;5153146;27;20309;-76
2022/09/15 09:11:47;;;;;;;6.88;1.05;;;17.20;99.90;;;;;;5119365;28;20040;-72
2022/09/15 09:14:31;;;;;;;5.70;1.00;;;16.90;99.90;;;;;;5119735;28;20089;-72
2022/09/15 09:17:17;;;;;;;12.20;1.20;;;16.80;99.90;;;;;;5119420;28;20043;-74
2022/09/15 09:20:14;;;;;;;5.80;1.10;;;16.80;99.90;;;;;;5119666;28;20061;-72
2022/09/15 09:22:43;;;;;;;10.45;1.20;;;16.80;99.90;;;;;;5119348;28;20126;-72
2022/09/15 09:25:13;;;;;;;10.35;1.42;;;16.80;99.90;;;;;;5118145;28;20340;-72
2022/09/15 09:27:39;;;;;;;6.72;0.90;;;16.90;99.90;;;;;;5119136;28;20048;-72
2022/09/15 09:30:16;;;;;;;6.38;1.10;;;17.00;99.90;;;;;;5119174;27;20063;-72
2022/09/15 09:32:54;;;;;;;5.35;1.10;;;17.40;99.90;;;;;;5119123;28;20031;-74
2022/09/15 09:35:43;;;;;;;8.77;1.10;;;17.50;99.90;;;;;;5119088;28;20057;-72
2022/09/15 09:38:11;;;;;;;6.88;1.20;;;17.80;99.90;;;;;;5118606;27;20114;-70
2022/09/15 09:40:39;;;;;;;11.02;1.30;;;18.00;99.90;;;;;;5118862;28;20451;-70
2022/09/15 09:43:06;;;;;;;8.43;1.10;;;18.20;99.90;;;;;;5118598;28;20341;-69
2022/09/15 09:45:32;;;;;;;8.50;1.20;;;18.30;99.90;;;;;;5118851;28;20040;-69
2022/09/15 09:48:20;;;;;;;8.55;1.30;;;18.40;99.90;;;;;;5118684;28;20318;-69
2022/09/15 09:50:46;;;;;;;11.75;1.60;;;18.10;99.90;;;;;;5118754;28;20110;-69
2022/09/15 09:53:27;;;;;;;10.90;1.20;;;17.90;99.90;;;;;;5118942;28;20043;-69
2022/09/15 09:56:13;;;;;;;9.13;1.33;;;17.50;99.90;;;;;;5118666;28;20373;-69
2022/09/15 09:58:39;;;;;;;4.30;0.93;;;17.10;99.90;;;;;;5118859;28;20042;-69
2022/09/15 10:01:20;;;;;;;7.38;0.80;;;16.90;99.90;;;;;;5118382;28;20339;-69
2022/09/15 10:03:45;;;;;;;7.38;1.48;;;17.10;99.90;;;;;;5118327;28;20076;-69
2022/09/15 10:06:11;;;;;;;4.82;0.80;;;17.30;99.90;;;;;;5118453;28;20425;-69
2022/09/15 10:08:55;;;;;;;5.78;0.80;;;17.40;99.90;;;;;;5118031;28;20415;-69
2022/09/15 10:11:21;;;;;;;5.93;1.10;;;17.20;99.90;;;;;;5118399;28;20429;-69
2022/09/15 10:13:55;;;;;;;7.72;0.73;;;17.30;99.90;;;;;;5117237;28;20489;-69
2022/09/15 10:16:21;;;;;;;5.72;0.50;;;17.30;99.90;;;;;;5118514;28;20047;-69
2022/09/15 10:18:49;;;;;;;4.72;0.52;;;17.50;99.90;;;;;;5118228;28;20325;-69
2022/09/15 10:21:20;;;;;;;3.75;0.52;;;17.70;99.90;;;;;;5118102;28;20437;-72
2022/09/15 10:23:46;;;;;;;5.20;0.88;;;17.80;99.90;;;;;;5118264;28;20043;-69
2022/09/15 10:26:15;;;;;;;6.90;0.88;;;17.80;99.90;;;;;;5117994;28;20118;-69
2022/09/15 10:28:42;;;;;;;4.93;0.70;;;17.80;99.90;;;;;;5118263;28;20324;-69
2022/09/15 10:31:12;;;;;;;8.18;0.70;;;18.10;99.90;;;;;;5118240;28;20355;-81
2022/09/15 10:33:46;;;;;;;6.72;0.90;;;17.90;99.90;;;;;;5118980;28;20118;-68
2022/09/15 10:36:27;;;;;;;5.57;0.88;;;17.80;99.90;;;;;;5118359;28;20157;-72
2022/09/15 10:39:18;;;;;;;5.40;0.80;;;18.20;99.90;;;;;;5118325;28;20409;-71
2022/09/15 10:42:17;;;;;;;5.45;0.98;;;18.30;99.90;;;;;;5117086;28;20432;-75
2022/09/15 10:44:57;;;;;;;5.88;0.95;;;18.10;99.90;;;;;;5117611;28;20317;-69
2022/09/15 10:47:52;;;;;;;6.82;1.08;;;17.90;99.90;;;;;;5117587;28;20042;-69
2022/09/15 10:50:27;;;;;;;6.90;0.85;;;17.80;99.90;;;;;;5045857;28;20051;-69
2022/09/15 10:53:29;;;;;;;4.15;0.68;;;17.60;99.90;;;;;;5117688;27;20085;-69
2022/09/15 10:56:22;;;;;;;9.90;1.10;;;17.60;99.90;;;;;;5116850;28;20036;-69
2022/09/15 10:59:10;;;;;;;6.38;0.60;;;17.50;99.90;;;;;;5117572;28;20130;-69
2022/09/15 11:01:43;;;;;;;3.45;0.80;;;17.40;99.90;;;;;;5105695;28;20382;-70
2022/09/15 11:04:29;;;;;;;5.13;0.77;;;17.30;99.90;;;;;;5117475;28;20093;-69
2022/09/15 11:07:06;;;;;;;2.88;0.50;;;17.30;99.90;;;;;;5105449;28;20416;-68
2022/09/15 11:10:01;;;;;;;4.82;0.50;;;17.30;99.90;;;;;;5117391;28;20089;-69
2022/09/15 11:12:47;;;;;;;2.67;0.45;;;17.30;99.90;;;;;;5117329;28;20325;-70
2022/09/15 11:15:22;;;;;;;5.75;0.70;;;17.40;99.90;;;;;;5117158;28;20054;-72
2022/09/15 11:17:58;;;;;;;2.42;0.50;;;17.40;99.90;;;;;;5116591;28;20448;-72
2022/09/15 11:20:51;;;;;;;4.65;0.70;;;17.50;99.90;;;;;;5150448;27;20333;-72
2022/09/15 11:23:33;;;;;;;3.38;0.50;;;17.70;99.90;;;;;;5117091;28;20499;-72
2022/09/15 11:26:22;;;;;;;1.42;0.22;;;17.90;99.90;;;;;;5117017;28;20421;-72
2022/09/15 11:29:03;;;;;;;4.70;0.40;;;18.10;99.90;;;;;;5117029;28;20081;-72
2022/09/15 11:31:37;;;;;;;5.50;0.50;;;18.40;99.90;;;;;;5117273;28;20044;-71
2022/09/15 11:34:20;;;;;;;4.07;0.70;;;18.60;99.90;;;;;;5117019;28;20090;-71
2022/09/15 11:37:01;;;;;;;4.63;0.60;;;18.70;99.90;;;;;;5098709;28;20039;-71
2022/09/15 11:39:36;;;;;;;9.80;0.68;;;18.80;99.90;;;;;;5116841;28;20044;-71
2022/09/15 11:42:22;;;;;;;5.25;0.60;;;18.50;99.90;;;;;;5116825;28;20055;-68
2022/09/15 11:44:48;;;;;;;;;;;18.60;99.90;;;;;;5117583;28;20048;-67
2022/09/15 11:47:29;;;;;;;4.53;0.40;;;18.40;99.90;;;;;;5115862;28;19920;-72
2022/09/15 11:50:09;;;;;;;5.85;0.98;;;18.50;99.90;;;;;;5116780;28;20050;-67
2022/09/15 11:52:53;;;;;;;5.28;0.55;;;18.30;99.90;;;;;;5116772;28;20035;-71
2022/09/15 11:55:23;;;;;;;6.53;0.60;;;18.40;99.90;;;;;;5116821;28;20091;-69
2022/09/15 11:58:17;;;;;;;3.13;0.50;;;18.70;99.90;;;;;;5115824;28;20048;-67
2022/09/15 12:01:01;;;;;;;5.10;0.70;;;18.60;99.70;;;;;;5116602;28;20075;-74
2022/09/15 12:04:18;;;;;;;3.58;0.45;;;18.90;99.90;;;;;;5116751;28;20040;-69
2022/09/15 12:06:55;;;;;;;6.93;0.80;;;19.40;99.70;;;;;;5053565;28;20045;-70
2022/09/15 12:09:21;;;;;;;7.45;0.77;;;19.50;99.80;;;;;;5108843;28;20344;-71
2022/09/15 12:11:54;;;;;;;6.53;1.00;;;19.70;99.60;;;;;;5116807;28;20115;-71
2022/09/15 12:14:36;;;;;;;8.23;0.90;;;20.00;99.70;;;;;;5116841;28;20058;-71
2022/09/15 12:17:04;;;;;;;6.88;0.80;;;19.60;99.30;;;;;;5116763;28;20371;-70
2022/09/15 12:19:46;;;;;;;4.70;0.50;;;19.30;99.10;;;;;;5116821;28;20055;-71
2022/09/15 12:22:27;;;;;;;4.53;0.80;;;19.20;99.00;;;;;;5116673;28;20044;-71
2022/09/15 12:24:56;;;;;;;4.53;0.70;;;19.00;99.30;;;;;;5116555;28;20463;-72
2022/09/15 12:27:21;;;;;;;4.85;0.60;;;19.30;99.00;;;;;;5118945;28;20130;-71
2022/09/15 12:29:52;;;;;;;3.58;0.47;;;19.40;99.00;;;;;;5120379;28;20158;-71
2022/09/15 12:32:21;;;;;;;4.63;0.57;;;19.70;98.90;;;;;;5120612;27;20036;-71
2022/09/15 12:35:25;;;;;;;3.80;0.65;;;20.30;98.40;;;;;;5119396;28;20090;-71
2022/09/15 12:37:56;;;;;;;5.07;0.63;;;20.90;98.10;;;;;;5102225;28;20078;-71
2022/09/15 12:40:40;;;;;;;5.25;0.52;;;21.50;97.90;;;;;;5120110;28;20122;-69
2022/09/15 12:43:12;;;;;;;3.40;0.68;;;21.70;97.50;;;;;;5119923;28;20402;-70
2022/09/15 12:45:40;;;;;;;4.03;1.08;;;21.50;97.50;;;;;;5120071;28;20043;-70
2022/09/15 12:48:10;;;;;;;6.10;0.70;;;20.90;97.70;;;;;;5119881;28;20317;-83
2022/09/15 12:51:00;;;;;;;13.93;3.15;;;19.80;98.10;;;;;;5118829;28;20107;-83
2022/09/15 12:53:33;;;;;;;13.02;1.95;;;19.40;98.50;;;;;;5118753;28;20097;-83
2022/09/15 12:56:02;;;;;;;13.48;1.77;;;19.20;98.90;;;;;;5119063;28;20392;-82
2022/09/15 12:58:37;;;;;;;12.77;1.35;;;18.80;98.90;;;;;;5118912;28;20043;-82
2022/09/15 13:01:18;;;;;;;9.10;1.08;;;18.60;99.00;;;;;;5118654;28;20085;-82
2022/09/15 13:03:49;;;;;;;8.55;1.20;;;18.60;99.30;;;;;;5153069;27;20047;-84
2022/09/15 13:06:26;;;;;;;6.60;0.95;;;18.90;99.00;;;;;;5118603;28;20043;-83
2022/09/15 13:09:24;;;;;;;6.90;0.93;;;19.20;98.90;;;;;;5101064;28;20039;-83
2022/09/15 13:11:53;;;;;;;6.78;0.93;;;19.40;99.10;;;;;;5119861;28;20032;-79